Time;durP1;ratioP1;P1;durP2;ratioP2;P2;SDS_P1;SDS_P2;PMS_P1;PMS_P2;Temp;Humidity;BMP_temperature;BMP_pressure;BME280_temperature;BME280_humidity;BME280_pressure;Samples;Min_cycle;Max_cycle;Signal;HPM_P1;HPM_P2
2022/01/02 00:02:27;;;;;;;13.50;7.68;;;13.10;66.40;;;;;;4964843;28;20027;-55
2022/01/02 00:05:06;;;;;;;17.45;8.35;;;13.10;66.20;;;;;;4964605;28;20030;-50
2022/01/02 00:07:39;;;;;;;14.18;8.10;;;13.10;66.30;;;;;;4967173;28;20022;-52
2022/01/02 00:10:06;;;;;;;14.60;7.83;;;13.10;66.20;;;;;;4978350;28;20057;-54
2022/01/02 00:12:35;;;;;;;12.82;7.90;;;13.00;66.10;;;;;;4969578;28;20091;-55
2022/01/02 00:15:05;;;;;;;13.82;7.97;;;13.00;66.10;;;;;;4978840;28;20029;-53
2022/01/02 00:17:32;;;;;;;13.43;8.07;;;13.00;66.00;;;;;;4950038;28;20385;-54
2022/01/02 00:20:08;;;;;;;15.10;8.77;;;13.00;66.00;;;;;;4942163;28;20038;-53
2022/01/02 00:22:37;;;;;;;14.02;8.35;;;12.90;66.00;;;;;;4943130;28;20480;-55
2022/01/02 00:25:11;;;;;;;17.15;8.98;;;12.90;66.00;;;;;;4925342;28;20435;-55
2022/01/02 00:27:37;;;;;;;19.75;9.35;;;12.90;66.10;;;;;;4939646;28;20039;-56
2022/01/02 00:30:05;;;;;;;12.30;8.35;;;12.90;66.20;;;;;;4945290;28;20047;-52
2022/01/02 00:32:37;;;;;;;14.60;8.88;;;12.90;66.30;;;;;;4938162;28;20031;-56
2022/01/02 00:35:04;;;;;;;13.43;8.65;;;12.90;66.40;;;;;;4945187;28;20035;-52
2022/01/02 00:37:30;;;;;;;14.07;9.20;;;12.90;66.30;;;;;;4942326;28;20027;-51
2022/01/02 00:39:56;;;;;;;14.95;8.65;;;12.80;66.40;;;;;;4944614;28;20047;-51
2022/01/02 00:42:33;;;;;;;12.65;8.10;;;12.80;66.40;;;;;;4927791;28;20407;-52
2022/01/02 00:45:07;;;;;;;14.48;9.15;;;12.80;66.60;;;;;;4943939;28;20042;-54
2022/01/02 00:47:37;;;;;;;13.95;8.65;;;12.80;66.60;;;;;;4926754;28;20066;-54
2022/01/02 00:50:11;;;;;;;13.20;8.82;;;12.80;66.60;;;;;;4943580;28;20031;-54
2022/01/02 00:52:46;;;;;;;18.48;10.50;;;12.80;66.70;;;;;;4940607;28;20038;-53
2022/01/02 00:55:20;;;;;;;15.55;9.30;;;12.80;66.70;;;;;;4944217;28;20465;-53
2022/01/02 00:57:58;;;;;;;14.02;9.23;;;12.80;66.80;;;;;;4941634;28;20027;-54
2022/01/02 01:00:24;;;;;;;15.63;8.88;;;12.80;66.80;;;;;;4941432;28;20054;-53
2022/01/02 01:02:53;;;;;;;16.15;8.82;;;12.80;66.70;;;;;;4940285;28;20029;-53
2022/01/02 01:05:23;;;;;;;15.10;9.20;;;12.80;66.70;;;;;;4944052;28;20511;-53
2022/01/02 01:07:53;;;;;;;15.50;8.88;;;12.80;66.70;;;;;;4941971;28;20034;-53
2022/01/02 01:10:21;;;;;;;12.93;8.40;;;12.80;66.70;;;;;;4939649;28;20378;-54
2022/01/02 01:12:53;;;;;;;13.70;8.80;;;12.80;66.70;;;;;;4941274;28;20031;-54
2022/01/02 01:15:22;;;;;;;16.17;8.80;;;12.80;66.70;;;;;;4942677;28;20285;-54
2022/01/02 01:17:49;;;;;;;15.13;9.48;;;12.80;66.70;;;;;;4932555;28;20034;-54
2022/01/02 01:20:16;;;;;;;14.18;9.40;;;12.80;66.70;;;;;;4978141;28;20034;-52
2022/01/02 01:22:43;;;;;;;16.70;9.48;;;12.80;67.40;;;;;;4959715;28;20039;-54
2022/01/02 01:25:13;;;;;;;15.38;8.95;;;12.80;66.80;;;;;;4964541;28;20026;-54
2022/01/02 01:27:40;;;;;;;16.08;9.40;;;12.80;66.80;;;;;;4959439;28;20034;-56
2022/01/02 01:30:08;;;;;;;14.38;8.27;;;12.80;66.80;;;;;;4968483;28;20042;-55
2022/01/02 01:32:34;;;;;;;14.90;8.93;;;12.80;66.80;;;;;;4973578;28;20049;-56
2022/01/02 01:35:02;;;;;;;13.93;9.32;;;12.80;66.80;;;;;;4966561;28;20030;-55
2022/01/02 01:37:29;;;;;;;13.98;8.13;;;12.80;66.90;;;;;;4968228;28;20035;-54
2022/01/02 01:39:56;;;;;;;13.52;9.68;;;12.80;66.90;;;;;;4970918;28;20041;-56
2022/01/02 01:42:43;;;;;;;15.38;8.68;;;12.80;67.00;;;;;;4961081;28;20113;-52
2022/01/02 01:47:50;;;;;;;14.68;9.02;;;12.90;67.10;;;;;;4966723;28;20034;-54
2022/01/02 01:50:18;;;;;;;15.13;8.98;;;12.90;67.70;;;;;;4964752;28;20362;-53
2022/01/02 01:52:44;;;;;;;14.20;8.93;;;12.90;67.00;;;;;;4966614;28;20038;-53
2022/01/02 01:55:12;;;;;;;18.25;9.60;;;12.90;67.00;;;;;;4978512;28;20503;-55
2022/01/02 01:57:39;;;;;;;13.80;7.78;;;12.90;67.00;;;;;;4972924;28;20029;-52
2022/01/02 02:00:11;;;;;;;17.55;9.85;;;13.00;67.00;;;;;;4976918;28;20053;-54
2022/01/02 02:02:38;;;;;;;12.20;7.97;;;13.00;67.00;;;;;;4968443;28;20478;-53
2022/01/02 02:05:04;;;;;;;14.63;7.93;;;13.00;66.90;;;;;;4957711;28;20061;-54
2022/01/02 02:07:39;;;;;;;12.07;7.65;;;13.00;66.90;;;;;;4954468;28;20035;-55
2022/01/02 02:10:16;;;;;;;17.23;7.63;;;13.00;66.80;;;;;;4977842;28;20559;-53
2022/01/02 02:12:45;;;;;;;15.32;8.35;;;13.00;66.80;;;;;;4971985;28;20083;-53
2022/01/02 02:15:13;;;;;;;13.65;7.82;;;13.10;66.80;;;;;;4977059;28;20346;-54
2022/01/02 02:17:40;;;;;;;11.05;7.35;;;13.10;66.70;;;;;;4960496;28;20042;-50
2022/01/02 02:20:15;;;;;;;11.50;7.90;;;13.10;66.60;;;;;;4969939;28;20154;-55
2022/01/02 02:22:42;;;;;;;;;;;13.10;66.60;;;;;;4971412;28;20045;-50
2022/01/02 02:25:16;;;;;;;14.07;8.43;;;13.10;67.30;;;;;;4967652;28;19905;-54
2022/01/02 02:27:49;;;;;;;12.32;7.82;;;13.10;66.20;;;;;;4970819;28;20025;-50
2022/01/02 02:30:15;;;;;;;14.57;8.02;;;13.20;66.30;;;;;;4975498;28;20089;-53
2022/01/02 02:32:41;;;;;;;12.95;7.93;;;13.10;66.10;;;;;;4970225;28;20038;-53
2022/01/02 02:35:08;;;;;;;12.55;7.97;;;13.10;66.20;;;;;;4972694;28;20038;-54
2022/01/02 02:37:41;;;;;;;13.30;8.10;;;13.10;66.30;;;;;;4961807;28;20053;-54
2022/01/02 02:40:08;;;;;;;13.30;8.00;;;13.10;66.30;;;;;;4964456;28;20932;-56
2022/01/02 02:42:46;;;;;;;15.25;8.13;;;13.10;66.30;;;;;;4973058;28;20025;-54
2022/01/02 02:51:08;;;;;;;15.13;8.75;;;13.20;66.30;;;;;;4966188;28;20679;-55
2022/01/02 02:53:37;;;;;;;13.73;8.40;;;13.20;66.20;;;;;;4964650;28;20030;-50
2022/01/02 02:56:14;;;;;;;12.95;8.30;;;13.20;66.20;;;;;;4968147;28;20523;-53
2022/01/02 02:58:43;;;;;;;11.65;8.10;;;13.10;66.10;;;;;;4961748;28;20043;-55
2022/01/02 03:01:13;;;;;;;13.73;8.38;;;13.20;66.20;;;;;;4968465;28;20400;-55
2022/01/02 03:03:40;;;;;;;12.63;8.23;;;13.10;66.10;;;;;;4962869;28;20487;-54
2022/01/02 03:06:06;;;;;;;11.98;7.55;;;13.10;66.10;;;;;;4978140;28;20038;-54
2022/01/02 03:08:34;;;;;;;12.93;8.00;;;13.10;66.10;;;;;;4978050;28;21079;-52
2022/01/02 03:11:01;;;;;;;10.55;7.30;;;13.20;66.20;;;;;;4973809;28;20096;-50
2022/01/02 03:13:28;;;;;;;11.48;7.75;;;13.20;66.20;;;;;;4971484;28;20046;-50
2022/01/02 03:15:54;;;;;;;13.65;7.60;;;13.20;66.10;;;;;;4971381;28;20019;-54
2022/01/02 03:18:20;;;;;;;16.70;8.50;;;13.20;66.10;;;;;;4942538;28;20043;-53
2022/01/02 03:20:46;;;;;;;13.05;8.07;;;13.20;66.10;;;;;;4955901;28;20035;-54
2022/01/02 03:23:12;;;;;;;11.52;7.65;;;13.20;66.10;;;;;;4954302;28;20045;-53
2022/01/02 03:25:39;;;;;;;15.15;8.20;;;13.20;66.10;;;;;;4967899;28;20035;-52
2022/01/02 03:28:05;;;;;;;11.63;8.10;;;13.20;66.10;;;;;;4980911;28;20030;-54
2022/01/02 03:30:31;;;;;;;10.80;7.47;;;13.20;66.10;;;;;;4962002;28;20035;-53
2022/01/02 03:32:57;;;;;;;10.88;7.03;;;13.20;66.10;;;;;;4979339;28;20022;-54
2022/01/02 03:35:24;;;;;;;13.18;7.53;;;13.20;66.00;;;;;;4982734;28;20039;-52
2022/01/02 03:37:51;;;;;;;12.43;8.02;;;13.20;66.00;;;;;;4973342;28;20038;-53
2022/01/02 03:40:17;;;;;;;12.43;7.47;;;13.20;66.00;;;;;;4975613;28;20053;-54
2022/01/02 03:42:44;;;;;;;11.52;6.80;;;13.20;66.10;;;;;;4953908;28;20035;-54
2022/01/02 03:45:10;;;;;;;14.02;7.40;;;13.20;66.00;;;;;;4974193;28;20034;-54
2022/01/02 03:47:37;;;;;;;13.18;6.57;;;13.20;66.00;;;;;;4960644;28;20049;-56
2022/01/02 03:50:05;;;;;;;11.20;6.97;;;13.20;66.00;;;;;;4969336;28;20053;-54
2022/01/02 03:52:31;;;;;;;8.73;5.82;;;13.20;66.80;;;;;;4961392;28;20030;-51
2022/01/02 03:54:58;;;;;;;11.38;5.97;;;13.20;66.00;;;;;;4969265;28;20034;-52
2022/01/02 03:57:24;;;;;;;12.75;6.70;;;13.20;66.00;;;;;;4976257;28;20483;-54
2022/01/02 03:59:50;;;;;;;10.18;6.55;;;13.20;65.90;;;;;;4970678;28;21153;-56
2022/01/02 04:02:17;;;;;;;14.07;6.90;;;13.30;65.90;;;;;;4971901;28;20038;-53
2022/01/02 04:04:43;;;;;;;11.07;6.53;;;13.30;65.90;;;;;;4977108;28;20386;-56
2022/01/02 04:07:09;;;;;;;11.80;6.78;;;13.30;65.90;;;;;;4962770;28;20027;-53
2022/01/02 04:09:35;;;;;;;12.35;6.68;;;13.30;65.80;;;;;;4960065;28;20475;-49
2022/01/02 04:12:02;;;;;;;10.80;7.28;;;13.20;65.70;;;;;;4954055;28;20383;-54
2022/01/02 04:14:28;;;;;;;10.73;7.03;;;13.20;65.70;;;;;;4969986;28;20034;-53
2022/01/02 04:16:54;;;;;;;13.07;6.50;;;13.30;65.70;;;;;;4967004;28;20030;-56
2022/01/02 04:19:20;;;;;;;13.02;7.50;;;13.30;65.70;;;;;;4978752;28;20033;-56
2022/01/02 04:21:46;;;;;;;12.07;6.60;;;13.30;65.70;;;;;;4978797;28;20045;-53
2022/01/02 04:24:13;;;;;;;12.25;7.13;;;13.30;65.60;;;;;;4960372;28;20031;-53
2022/01/02 04:26:39;;;;;;;15.18;6.97;;;13.30;65.60;;;;;;4962743;28;20035;-56
2022/01/02 04:29:05;;;;;;;14.38;7.65;;;13.30;65.60;;;;;;4957564;28;20403;-53
2022/01/02 04:31:32;;;;;;;9.80;6.00;;;13.30;65.60;;;;;;4969061;28;20399;-53
2022/01/02 04:33:58;;;;;;;10.15;6.80;;;13.30;65.60;;;;;;4981737;28;20475;-54
2022/01/02 04:36:24;;;;;;;12.00;6.32;;;13.30;65.60;;;;;;4971119;28;20023;-54
2022/01/02 04:38:51;;;;;;;8.98;6.07;;;13.30;65.60;;;;;;4957337;28;20027;-53
2022/01/02 04:41:17;;;;;;;11.90;7.13;;;13.30;66.30;;;;;;4947005;28;20031;-54
2022/01/02 04:43:43;;;;;;;8.27;5.78;;;13.30;65.50;;;;;;4963917;28;20026;-54
2022/01/02 04:46:09;;;;;;;13.18;6.30;;;13.30;65.60;;;;;;4973770;28;20037;-54
2022/01/02 04:48:35;;;;;;;12.68;6.82;;;13.30;66.20;;;;;;4967466;28;20640;-54
2022/01/02 04:51:02;;;;;;;12.35;6.38;;;13.30;66.20;;;;;;4939539;28;20042;-54
2022/01/02 04:53:28;;;;;;;12.25;6.50;;;13.30;65.50;;;;;;4955369;28;20035;-56
2022/01/02 04:55:54;;;;;;;9.57;5.68;;;13.30;65.50;;;;;;4957490;28;20026;-53
2022/01/02 04:58:20;;;;;;;10.88;6.15;;;13.30;65.40;;;;;;4954369;28;20034;-56
2022/01/02 05:00:46;;;;;;;12.55;6.63;;;13.30;65.40;;;;;;4945103;28;20039;-53
2022/01/02 05:03:13;;;;;;;14.77;7.32;;;13.30;65.30;;;;;;4947817;28;20035;-54
2022/01/02 05:05:39;;;;;;;11.63;6.22;;;13.30;65.20;;;;;;4948747;28;20404;-51
2022/01/02 05:08:06;;;;;;;10.35;6.90;;;13.40;65.30;;;;;;4957801;28;20041;-51
2022/01/02 05:10:32;;;;;;;10.23;6.05;;;13.30;65.20;;;;;;4957951;28;20035;-52
2022/01/02 05:12:58;;;;;;;11.23;6.50;;;13.40;65.30;;;;;;4936235;28;20391;-53
2022/01/02 05:15:24;;;;;;;13.25;6.70;;;13.40;65.30;;;;;;4948943;28;20031;-55
2022/01/02 05:17:50;;;;;;;10.38;5.78;;;13.40;65.20;;;;;;4934103;28;20058;-54
2022/01/02 05:20:16;;;;;;;14.85;7.10;;;13.40;65.30;;;;;;4960803;28;20542;-54
2022/01/02 05:22:43;;;;;;;11.40;6.20;;;13.40;65.20;;;;;;4946233;28;20022;-51
2022/01/02 05:25:09;;;;;;;12.85;6.32;;;13.40;65.20;;;;;;4958018;28;20046;-53
2022/01/02 05:27:35;;;;;;;10.07;6.57;;;13.40;65.20;;;;;;4958916;28;20031;-54
2022/01/02 05:30:02;;;;;;;11.10;6.32;;;13.40;65.20;;;;;;4972674;28;20498;-51
2022/01/02 05:32:28;;;;;;;12.05;6.53;;;13.40;65.20;;;;;;4966723;28;20476;-55
2022/01/02 05:34:54;;;;;;;13.18;6.50;;;13.40;65.20;;;;;;4942970;28;20042;-51
2022/01/02 05:37:20;;;;;;;14.63;6.88;;;13.40;65.20;;;;;;4958253;28;20038;-52
2022/01/02 05:39:46;;;;;;;11.10;6.65;;;13.40;65.20;;;;;;4960343;28;20391;-55
2022/01/02 05:42:12;;;;;;;11.02;6.57;;;13.40;65.20;;;;;;4956680;28;20038;-53
2022/01/02 05:44:39;;;;;;;11.88;6.72;;;13.40;65.10;;;;;;4949913;28;20293;-54
2022/01/02 05:47:05;;;;;;;9.38;6.10;;;13.40;65.20;;;;;;4967698;28;20031;-53
2022/01/02 05:49:31;;;;;;;12.98;6.55;;;13.40;65.20;;;;;;4960238;28;20042;-51
2022/01/02 05:51:57;;;;;;;10.40;6.07;;;13.40;65.20;;;;;;4966315;28;20042;-54
2022/01/02 05:54:23;;;;;;;9.55;6.05;;;13.40;65.20;;;;;;4960453;28;20022;-55
2022/01/02 05:56:51;;;;;;;9.73;6.25;;;13.40;65.20;;;;;;4955631;28;20038;-54
2022/01/02 05:59:17;;;;;;;12.75;6.70;;;13.40;65.20;;;;;;4952744;28;20047;-52
2022/01/02 06:01:43;;;;;;;31.83;15.65;;;13.40;65.20;;;;;;4953386;28;20399;-54
2022/01/02 06:04:09;;;;;;;20.70;10.80;;;13.40;65.20;;;;;;4957480;28;20034;-54
2022/01/02 06:06:35;;;;;;;21.33;9.75;;;13.40;65.20;;;;;;4953701;28;20502;-54
2022/01/02 06:09:02;;;;;;;13.32;7.57;;;13.40;65.10;;;;;;4961416;28;20466;-54
2022/01/02 06:11:29;;;;;;;14.60;7.38;;;13.40;65.20;;;;;;4953509;28;20039;-51
2022/01/02 06:13:55;;;;;;;12.05;6.93;;;13.40;65.10;;;;;;4966087;28;20026;-55
2022/01/02 06:16:21;;;;;;;10.30;6.88;;;13.40;65.10;;;;;;4972928;28;20049;-55
2022/01/02 06:18:47;;;;;;;12.02;6.88;;;13.40;65.20;;;;;;4975691;28;20038;-50
2022/01/02 06:21:14;;;;;;;11.55;6.95;;;13.40;65.20;;;;;;4944172;28;20253;-50
2022/01/02 06:23:40;;;;;;;10.65;6.53;;;13.40;65.20;;;;;;4955893;28;20387;-55
2022/01/02 06:26:06;;;;;;;9.50;6.40;;;13.30;65.10;;;;;;4969211;28;20022;-54
2022/01/02 06:28:32;;;;;;;11.07;7.00;;;13.30;65.10;;;;;;4967866;28;20034;-53
2022/01/02 06:30:58;;;;;;;13.68;6.28;;;13.30;65.10;;;;;;4955632;28;20042;-50
2022/01/02 06:33:25;;;;;;;11.25;6.38;;;13.30;65.10;;;;;;4948060;28;20039;-53
2022/01/02 06:35:51;;;;;;;13.10;6.72;;;13.30;65.10;;;;;;4957014;28;20355;-53
2022/01/02 06:38:20;;;;;;;10.57;6.53;;;13.30;65.10;;;;;;4952780;28;20399;-54
2022/01/02 06:40:47;;;;;;;21.42;10.65;;;13.30;65.20;;;;;;4958673;28;20027;-54
2022/01/02 06:43:14;;;;;;;22.88;12.50;;;13.30;65.10;;;;;;4963898;28;20495;-54
2022/01/02 06:45:41;;;;;;;17.25;8.82;;;13.30;65.20;;;;;;4955640;28;20510;-52
2022/01/02 06:48:07;;;;;;;11.55;7.20;;;13.30;65.20;;;;;;4945245;28;20367;-56
2022/01/02 06:50:33;;;;;;;12.20;6.10;;;13.30;65.10;;;;;;4957948;28;20023;-53
2022/01/02 06:52:59;;;;;;;12.07;5.78;;;13.30;65.10;;;;;;4958126;28;20035;-53
2022/01/02 06:55:26;;;;;;;10.45;6.13;;;13.30;65.00;;;;;;4962256;28;20432;-50
2022/01/02 06:57:53;;;;;;;10.82;6.30;;;13.30;65.00;;;;;;4952827;28;20490;-53
2022/01/02 07:00:19;;;;;;;11.20;5.90;;;13.30;64.90;;;;;;4956544;28;20471;-56
2022/01/02 07:02:45;;;;;;;11.60;6.00;;;13.30;64.90;;;;;;4952909;28;20020;-55
2022/01/02 07:05:11;;;;;;;11.43;6.38;;;13.30;64.80;;;;;;4961400;28;20031;-51
2022/01/02 07:07:45;;;;;;;8.75;5.55;;;13.30;64.80;;;;;;4957941;28;20031;-53
2022/01/02 07:10:13;;;;;;;15.75;6.10;;;13.30;64.60;;;;;;4961571;28;20045;-53
2022/01/02 07:12:39;;;;;;;8.52;5.22;;;13.30;64.50;;;;;;4955199;28;20031;-53
2022/01/02 07:15:08;;;;;;;11.60;5.63;;;13.30;65.20;;;;;;4959509;28;20039;-54
2022/01/02 07:17:34;;;;;;;10.50;6.03;;;13.30;64.40;;;;;;4958206;28;20050;-53
2022/01/02 07:20:03;;;;;;;11.00;5.47;;;13.30;64.40;;;;;;4961236;28;20030;-54
2022/01/02 07:22:29;;;;;;;9.60;5.00;;;13.30;65.10;;;;;;4964568;28;20314;-54
2022/01/02 07:24:56;;;;;;;8.27;5.00;;;13.30;64.30;;;;;;4963603;28;20030;-55
2022/01/02 07:27:22;;;;;;;9.75;5.68;;;13.30;64.30;;;;;;4962890;28;20031;-53
2022/01/02 07:29:51;;;;;;;9.55;5.05;;;13.30;64.10;;;;;;4964405;28;20494;-54
2022/01/02 07:32:17;;;;;;;8.68;5.07;;;13.20;64.00;;;;;;4961476;28;20054;-55
2022/01/02 07:34:44;;;;;;;9.07;5.25;;;13.30;64.00;;;;;;4963872;28;20475;-53
2022/01/02 07:37:11;;;;;;;8.32;5.03;;;13.20;63.90;;;;;;4945166;28;20054;-52
2022/01/02 07:39:37;;;;;;;8.98;4.82;;;13.20;63.90;;;;;;4961842;28;20031;-55
2022/01/02 07:42:03;;;;;;;9.90;5.00;;;13.20;63.90;;;;;;4961325;28;20375;-51
2022/01/02 07:44:30;;;;;;;8.73;4.80;;;13.20;63.90;;;;;;4962870;28;20479;-55
2022/01/02 07:46:56;;;;;;;6.38;4.20;;;13.30;64.00;;;;;;4944885;28;20042;-49
2022/01/02 07:49:22;;;;;;;10.82;5.10;;;13.20;64.00;;;;;;4958886;28;20046;-53
2022/01/02 07:51:48;;;;;;;8.93;4.50;;;13.20;64.00;;;;;;4954672;28;20505;-54
2022/01/02 07:54:15;;;;;;;6.35;4.10;;;13.20;63.90;;;;;;4963085;28;20042;-51
2022/01/02 07:56:41;;;;;;;8.20;4.60;;;13.30;64.00;;;;;;4955148;28;20889;-54
2022/01/02 07:59:08;;;;;;;6.43;4.57;;;13.20;63.80;;;;;;4953449;28;20468;-54
2022/01/02 08:01:34;;;;;;;7.25;4.63;;;13.20;63.80;;;;;;4952207;28;20050;-51
2022/01/02 08:04:01;;;;;;;11.52;4.35;;;13.20;63.70;;;;;;4960423;28;20026;-56
2022/01/02 08:06:27;;;;;;;7.70;4.50;;;13.20;63.80;;;;;;4963540;28;20050;-53
2022/01/02 08:08:53;;;;;;;58.05;24.48;;;13.30;63.80;;;;;;4963933;28;20023;-52
2022/01/02 08:11:19;;;;;;;39.25;18.35;;;13.30;63.70;;;;;;4962953;28;20031;-55
2022/01/02 08:13:45;;;;;;;14.75;7.88;;;13.30;63.70;;;;;;4963891;28;20031;-54
2022/01/02 08:16:12;;;;;;;9.10;4.95;;;13.30;63.60;;;;;;4944539;28;20042;-53
2022/01/02 08:18:39;;;;;;;8.75;4.97;;;13.30;63.50;;;;;;4954682;28;20038;-52
2022/01/02 08:21:07;;;;;;;6.95;4.43;;;13.30;63.30;;;;;;4953248;28;20142;-53
2022/01/02 08:23:33;;;;;;;9.90;4.15;;;13.20;63.20;;;;;;4952425;28;20432;-51
2022/01/02 08:26:00;;;;;;;5.72;4.05;;;13.20;63.20;;;;;;4953589;28;20026;-54
2022/01/02 08:28:26;;;;;;;6.35;3.70;;;13.30;63.10;;;;;;4939320;28;20249;-55
2022/01/02 08:30:53;;;;;;;6.38;4.30;;;13.30;63.10;;;;;;4954990;28;20031;-54
2022/01/02 08:33:19;;;;;;;6.57;4.20;;;13.30;63.00;;;;;;4954156;28;20042;-55
2022/01/02 08:35:45;;;;;;;7.72;3.95;;;13.30;62.90;;;;;;4951689;28;20031;-55
2022/01/02 08:38:12;;;;;;;5.60;3.60;;;13.30;62.90;;;;;;4951942;28;20046;-50
2022/01/02 08:40:39;;;;;;;7.22;4.18;;;13.30;62.80;;;;;;4951756;28;20033;-52
2022/01/02 08:43:07;;;;;;;7.63;3.92;;;13.30;62.80;;;;;;4953558;28;20046;-54
2022/01/02 08:45:35;;;;;;;6.00;3.55;;;13.30;62.60;;;;;;4956481;28;20376;-52
2022/01/02 08:48:02;;;;;;;5.95;3.40;;;13.20;62.50;;;;;;4956261;28;20030;-52
2022/01/02 08:50:28;;;;;;;8.02;3.60;;;13.30;62.40;;;;;;4959379;28;20047;-53
2022/01/02 08:52:54;;;;;;;10.75;3.35;;;13.30;62.40;;;;;;4943646;28;20487;-55
2022/01/02 08:55:21;;;;;;;5.32;3.17;;;13.30;62.30;;;;;;4963272;28;20488;-54
2022/01/02 08:57:47;;;;;;;5.07;3.33;;;13.30;62.20;;;;;;4960881;28;20026;-54
2022/01/02 09:00:14;;;;;;;5.10;2.95;;;13.30;62.00;;;;;;4963278;28;20030;-58
2022/01/02 09:02:40;;;;;;;3.97;2.85;;;13.30;62.00;;;;;;4961076;28;20383;-57
2022/01/02 09:05:08;;;;;;;5.47;3.08;;;13.30;62.60;;;;;;4963745;28;20040;-56
2022/01/02 09:07:35;;;;;;;8.00;3.00;;;13.30;61.80;;;;;;4943144;28;20045;-57
2022/01/02 09:10:02;;;;;;;5.90;2.90;;;13.30;61.70;;;;;;4962543;28;20038;-56
2022/01/02 09:12:28;;;;;;;8.77;2.97;;;13.30;61.50;;;;;;4961847;28;20427;-56
2022/01/02 09:14:55;;;;;;;4.55;2.72;;;13.30;61.50;;;;;;4962061;28;20505;-57
2022/01/02 09:17:21;;;;;;;6.22;3.00;;;13.40;61.40;;;;;;4959071;28;20054;-56
2022/01/02 09:19:49;;;;;;;4.57;2.40;;;13.40;61.30;;;;;;4960977;28;20039;-58
2022/01/02 09:22:15;;;;;;;4.63;2.55;;;13.40;61.10;;;;;;4961775;28;20043;-56
2022/01/02 09:24:41;;;;;;;8.07;2.75;;;13.40;61.00;;;;;;4963013;28;20041;-58
2022/01/02 09:27:07;;;;;;;4.25;2.20;;;13.40;60.80;;;;;;4961716;28;20027;-57
2022/01/02 09:29:33;;;;;;;6.75;2.60;;;13.40;60.80;;;;;;4960610;28;20019;-55
2022/01/02 09:32:01;;;;;;;5.28;2.47;;;13.40;60.70;;;;;;4959943;28;20391;-57
2022/01/02 09:34:27;;;;;;;5.72;2.30;;;13.50;60.60;;;;;;4960609;28;20411;-53
2022/01/02 09:36:53;;;;;;;5.25;2.17;;;13.50;60.00;;;;;;4962503;28;20042;-56
2022/01/02 09:39:19;;;;;;;4.78;2.40;;;13.50;59.90;;;;;;4958827;28;20847;-57
2022/01/02 09:41:46;;;;;;;3.88;2.33;;;13.50;59.80;;;;;;4962056;28;20035;-57
2022/01/02 09:44:12;;;;;;;4.43;2.17;;;13.60;59.60;;;;;;4961187;28;20475;-57
2022/01/02 09:46:39;;;;;;;9.35;2.50;;;13.60;59.40;;;;;;4959554;28;20041;-57
2022/01/02 09:49:06;;;;;;;4.10;2.40;;;13.60;59.30;;;;;;4959799;28;20039;-51
2022/01/02 09:51:32;;;;;;;4.13;2.10;;;13.60;59.10;;;;;;4961117;28;20030;-56
2022/01/02 09:53:59;;;;;;;4.35;2.38;;;13.70;59.10;;;;;;4961202;28;20031;-59
2022/01/02 09:56:25;;;;;;;9.80;2.08;;;13.70;58.90;;;;;;4961967;28;20035;-55
2022/01/02 09:58:52;;;;;;;4.18;2.28;;;13.80;58.60;;;;;;4960239;28;20051;-56
2022/01/02 10:01:23;;;;;;;4.18;2.20;;;13.80;58.40;;;;;;4961565;28;20450;-57
2022/01/02 10:03:53;;;;;;;4.95;2.38;;;13.90;58.30;;;;;;4962194;28;20023;-55
2022/01/02 10:06:21;;;;;;;7.30;2.30;;;14.00;58.30;;;;;;4960840;28;20026;-56
2022/01/02 10:08:47;;;;;;;4.07;1.95;;;14.00;57.90;;;;;;4959602;28;20026;-57
2022/01/02 10:11:21;;;;;;;5.25;2.38;;;14.00;57.80;;;;;;4960550;28;20038;-58
2022/01/02 10:13:50;;;;;;;3.47;2.13;;;14.10;57.70;;;;;;4960331;28;20026;-57
2022/01/02 10:16:37;;;;;;;5.00;1.90;;;14.20;57.60;;;;;;4957121;28;20053;-57
2022/01/02 10:19:29;;;;;;;7.43;2.40;;;14.20;57.10;;;;;;4958877;28;20049;-57
2022/01/02 10:21:59;;;;;;;3.33;2.00;;;14.30;57.30;;;;;;4961615;28;20403;-57
2022/01/02 10:24:27;;;;;;;7.82;2.50;;;14.40;57.20;;;;;;4961690;28;20054;-57
2022/01/02 10:27:05;;;;;;;4.10;1.95;;;14.40;56.80;;;;;;4960351;28;20039;-58
2022/01/02 10:29:50;;;;;;;5.28;2.45;;;14.50;55.90;;;;;;4960711;28;20027;-57
2022/01/02 10:32:35;;;;;;;5.15;2.03;;;14.50;56.20;;;;;;4958622;28;20395;-57
2022/01/02 10:35:12;;;;;;;5.63;2.35;;;14.60;56.20;;;;;;4961723;28;20527;-60
2022/01/02 10:37:42;;;;;;;4.03;1.98;;;14.70;55.30;;;;;;4958494;28;20491;-57
2022/01/02 10:40:36;;;;;;;5.93;2.40;;;14.70;55.00;;;;;;4960975;28;20399;-57
2022/01/02 10:43:08;;;;;;;8.75;2.42;;;14.80;54.40;;;;;;4962142;28;20046;-58
2022/01/02 10:45:43;;;;;;;5.80;2.25;;;14.90;54.70;;;;;;4962227;28;20468;-58
2022/01/02 10:48:13;;;;;;;9.60;2.20;;;14.90;54.60;;;;;;4958380;28;20038;-55
2022/01/02 10:50:57;;;;;;;5.22;2.08;;;15.00;54.40;;;;;;4961196;28;20531;-60
2022/01/02 10:53:24;;;;;;;5.82;2.25;;;15.10;54.50;;;;;;4959408;28;20600;-56
2022/01/02 10:55:50;;;;;;;6.25;2.40;;;15.10;54.40;;;;;;4957412;28;20033;-59
2022/01/02 10:58:16;;;;;;;3.40;1.77;;;15.20;54.20;;;;;;4959134;28;20042;-57
2022/01/02 11:00:43;;;;;;;6.72;2.53;;;15.30;54.10;;;;;;4961587;28;20031;-58
2022/01/02 11:03:09;;;;;;;6.22;2.60;;;15.30;53.70;;;;;;4961108;28;20027;-59
2022/01/02 11:05:37;;;;;;;4.95;2.30;;;15.40;53.80;;;;;;4961678;28;20035;-59
2022/01/02 11:08:05;;;;;;;4.15;2.10;;;15.50;53.40;;;;;;4959451;28;20387;-58
2022/01/02 11:10:35;;;;;;;4.68;2.42;;;15.50;53.80;;;;;;4959566;28;20514;-56
2022/01/02 11:13:03;;;;;;;4.05;2.30;;;15.60;53.50;;;;;;4959025;28;20384;-57
2022/01/02 11:15:30;;;;;;;5.60;2.10;;;15.60;53.20;;;;;;4961672;28;20028;-58
2022/01/02 11:17:57;;;;;;;5.90;2.78;;;15.70;53.10;;;;;;4957183;28;20434;-59
2022/01/02 11:20:28;;;;;;;6.85;2.40;;;15.80;53.10;;;;;;4960370;28;20049;-59
2022/01/02 11:23:20;;;;;;;8.25;2.42;;;15.80;52.90;;;;;;4960907;28;20031;-59
2022/01/02 11:26:07;;;;;;;3.47;2.10;;;15.80;52.40;;;;;;4961425;28;20069;-59
2022/01/02 11:28:39;;;;;;;5.25;2.03;;;15.90;52.40;;;;;;4961922;28;20036;-59
2022/01/02 11:31:08;;;;;;;8.00;3.00;;;15.90;52.40;;;;;;4943587;28;20034;-56
2022/01/02 11:33:37;;;;;;;4.47;2.40;;;16.00;52.40;;;;;;4961592;28;20026;-58
2022/01/02 11:36:24;;;;;;;4.35;2.17;;;16.00;52.40;;;;;;4964325;28;20034;-58
2022/01/02 11:39:01;;;;;;;5.03;2.25;;;16.00;52.30;;;;;;4963208;28;20062;-57
2022/01/02 11:41:40;;;;;;;6.97;2.35;;;16.10;52.20;;;;;;4964026;28;20045;-56
2022/01/02 11:44:10;;;;;;;5.88;2.10;;;16.00;52.00;;;;;;4963179;28;20479;-57
2022/01/02 11:46:54;;;;;;;7.35;2.17;;;16.10;52.20;;;;;;4962015;28;20384;-59
2022/01/02 11:49:22;;;;;;;4.53;2.40;;;16.10;52.00;;;;;;4963235;28;20451;-55
2022/01/02 11:51:49;;;;;;;4.47;2.20;;;16.10;52.30;;;;;;4963184;28;20038;-57
2022/01/02 11:54:35;;;;;;;3.95;1.98;;;16.10;52.20;;;;;;4964602;28;20743;-57
2022/01/02 11:57:03;;;;;;;8.05;2.13;;;16.10;52.00;;;;;;4962034;28;20046;-59
2022/01/02 11:59:38;;;;;;;5.78;2.05;;;16.10;52.20;;;;;;4964608;28;20031;-58
2022/01/02 12:02:13;;;;;;;6.88;2.40;;;16.10;52.00;;;;;;4963642;28;20038;-58
2022/01/02 12:07:33;;;;;;;4.88;2.15;;;16.10;52.00;;;;;;4963075;28;20034;-59
2022/01/02 12:10:17;;;;;;;4.63;2.15;;;16.10;52.00;;;;;;4944331;28;20054;-59
2022/01/02 12:13:06;;;;;;;3.28;1.98;;;16.10;52.00;;;;;;4962757;28;20031;-57
2022/01/02 12:15:35;;;;;;;5.30;2.05;;;16.10;52.10;;;;;;4946847;28;20046;-56
2022/01/02 12:18:31;;;;;;;5.03;2.42;;;16.20;52.30;;;;;;4955583;28;20046;-57
2022/01/02 12:21:07;;;;;;;3.97;2.00;;;16.20;52.40;;;;;;4960239;28;20039;-55
2022/01/02 12:23:33;;;;;;;3.60;2.20;;;16.20;52.50;;;;;;4964034;28;20062;-56
2022/01/02 12:26:05;;;;;;;5.22;2.22;;;16.20;52.30;;;;;;4963492;28;20038;-55
2022/01/02 12:28:41;;;;;;;4.25;2.17;;;16.20;52.10;;;;;;4961565;28;20027;-56
2022/01/02 12:31:16;;;;;;;6.57;2.25;;;16.20;52.10;;;;;;4957340;28;20031;-57
2022/01/02 12:33:45;;;;;;;6.30;2.40;;;16.20;52.20;;;;;;4959206;28;20045;-57
2022/01/02 12:36:16;;;;;;;4.40;2.40;;;16.20;52.10;;;;;;4957875;28;20035;-56
2022/01/02 12:38:49;;;;;;;3.72;1.90;;;16.20;52.30;;;;;;4957840;28;20031;-57
2022/01/02 12:41:19;;;;;;;7.18;3.38;;;16.20;52.30;;;;;;4962464;28;20042;-55
2022/01/02 12:43:56;;;;;;;5.20;2.45;;;16.20;52.20;;;;;;4958963;28;20382;-56
2022/01/02 12:46:39;;;;;;;7.10;2.63;;;16.30;52.20;;;;;;4959157;28;20023;-56
2022/01/02 12:49:11;;;;;;;5.20;2.85;;;16.30;52.10;;;;;;4941626;28;20427;-55
2022/01/02 12:51:42;;;;;;;4.57;2.30;;;16.20;52.20;;;;;;4959386;28;20027;-56
2022/01/02 12:54:10;;;;;;;4.07;2.20;;;16.30;52.30;;;;;;4941964;28;20050;-55
2022/01/02 12:56:48;;;;;;;11.82;4.75;;;16.30;52.20;;;;;;4954945;28;20042;-57
2022/01/02 12:59:54;;;;;;;6.82;3.03;;;16.30;52.30;;;;;;4959450;28;20042;-55
2022/01/02 13:02:25;;;;;;;4.72;2.20;;;16.30;52.40;;;;;;4894501;29;20074;-57